createdAt,value
2022-08-03T00:01:40.079Z,19.14
2022-08-03T00:04:07.584Z,19.23
2022-08-03T00:06:37.104Z,19.17
2022-08-03T00:09:06.912Z,19.02
2022-08-03T00:11:34.878Z,19.23
2022-08-03T00:14:01.322Z,19.21
2022-08-03T00:16:27.836Z,19.09
2022-08-03T00:18:54.299Z,19.21
2022-08-03T00:21:20.725Z,19.19
2022-08-03T00:23:51.427Z,18.99
2022-08-03T00:26:22.206Z,19.19
2022-08-03T00:28:49.805Z,19.10
2022-08-03T00:31:16.596Z,19.14
2022-08-03T00:33:58.959Z,19.13
2022-08-03T00:36:26.432Z,19.05
2022-08-03T00:38:52.846Z,19.13
2022-08-03T00:41:19.254Z,19.12
2022-08-03T00:43:47.363Z,19.01
2022-08-03T00:46:17.748Z,18.84
2022-08-03T00:48:47.202Z,18.96
2022-08-03T00:51:13.836Z,19.01
2022-08-03T00:53:40.275Z,18.97
2022-08-03T00:56:06.804Z,18.90
2022-08-03T00:58:33.413Z,18.71
2022-08-03T01:01:00.050Z,18.84
2022-08-03T01:03:26.543Z,18.86
2022-08-03T01:06:13.191Z,18.81
2022-08-03T01:08:54.450Z,18.79
2022-08-03T01:12:00.575Z,18.76
2022-08-03T01:14:34.379Z,18.81
2022-08-03T01:17:22.486Z,18.81
2022-08-03T01:20:13.567Z,18.71
2022-08-03T01:23:16.270Z,18.63
2022-08-03T01:26:04.622Z,18.71
2022-08-03T01:28:56.032Z,18.63
2022-08-03T01:31:31.830Z,18.75
2022-08-03T01:34:03.241Z,18.79
2022-08-03T01:36:35.084Z,18.61
2022-08-03T01:39:03.423Z,18.71
2022-08-03T01:41:38.770Z,18.62
2022-08-03T01:44:29.942Z,18.48
2022-08-03T01:46:59.474Z,18.35
2022-08-03T01:49:28.435Z,18.11
2022-08-03T01:51:57.761Z,18.11
2022-08-03T01:54:31.147Z,18.23
2022-08-03T01:56:59.353Z,18.08
2022-08-03T01:59:27.715Z,18.21
2022-08-03T02:02:27.940Z,18.17
2022-08-03T02:04:43.673Z,18.12
2022-08-03T02:07:11.342Z,18.06
2022-08-03T02:09:40.128Z,18.24
2022-08-03T02:12:11.112Z,18.15
2022-08-03T02:14:41.081Z,18.20
2022-08-03T02:17:08.161Z,18.14
2022-08-03T02:19:36.278Z,18.10
2022-08-03T02:22:06.177Z,17.87
2022-08-03T02:24:32.826Z,18.04
2022-08-03T02:27:01.090Z,18.03
2022-08-03T02:29:39.160Z,17.94
2022-08-03T02:32:10.385Z,17.80
2022-08-03T02:34:37.827Z,17.79
2022-08-03T02:37:04.807Z,17.79
2022-08-03T02:39:35.531Z,17.74
2022-08-03T02:42:05.486Z,17.67
2022-08-03T02:44:34.753Z,17.42
2022-08-03T02:47:05.035Z,17.68
2022-08-03T02:49:49.431Z,17.63
2022-08-03T02:52:19.500Z,17.71
2022-08-03T02:54:48.771Z,17.69
2022-08-03T02:57:16.833Z,17.72
2022-08-03T02:59:44.494Z,17.73
2022-08-03T03:02:12.345Z,17.70
2022-08-03T03:04:43.135Z,17.64
2022-08-03T03:07:26.743Z,17.70
2022-08-03T03:09:56.244Z,17.69
2022-08-03T03:12:23.653Z,17.64
2022-08-03T03:14:50.483Z,17.65
2022-08-03T03:17:17.722Z,17.54
2022-08-03T03:19:45.594Z,17.45
2022-08-03T03:22:13.154Z,17.52
2022-08-03T03:24:41.587Z,17.49
2022-08-03T03:27:08.711Z,17.54
2022-08-03T03:29:39.270Z,17.42
2022-08-03T03:32:08.451Z,17.55
2022-08-03T03:34:37.151Z,17.61
2022-08-03T03:37:03.619Z,17.45
2022-08-03T03:39:30.069Z,17.65
2022-08-03T03:41:57.376Z,17.67
2022-08-03T03:44:28.624Z,17.70
2022-08-03T03:46:56.303Z,17.74
2022-08-03T03:49:23.193Z,17.59
2022-08-03T03:51:53.839Z,17.71
2022-08-03T03:54:21.144Z,17.48
2022-08-03T03:56:48.012Z,17.67
2022-08-03T03:59:14.482Z,17.69
2022-08-03T04:01:41.094Z,17.55
2022-08-03T04:04:26.136Z,17.74
2022-08-03T04:07:10.830Z,17.71
2022-08-03T04:09:59.168Z,17.74
2022-08-03T04:12:38.178Z,17.76
2022-08-03T04:15:22.817Z,17.82
2022-08-03T04:17:52.508Z,17.72
2022-08-03T04:20:21.373Z,17.89
2022-08-03T04:22:51.273Z,17.95
2022-08-03T04:25:20.245Z,17.97
2022-08-03T04:28:29.309Z,17.97
2022-08-03T04:30:38.723Z,18.03
2022-08-03T04:33:06.460Z,18.03
2022-08-03T04:36:01.276Z,18.04
2022-08-03T04:38:25.456Z,17.80
2022-08-03T04:40:52.887Z,17.85
2022-08-03T04:43:22.130Z,18.11
2022-08-03T04:45:49.952Z,18.10
2022-08-03T04:48:17.354Z,18.01
2022-08-03T04:50:44.379Z,18.10
2022-08-03T04:53:10.834Z,18.15
2022-08-03T04:55:37.368Z,18.22
2022-08-03T04:58:04.329Z,18.24
2022-08-03T05:00:31.307Z,18.25
2022-08-03T05:02:57.975Z,18.31
2022-08-03T05:05:24.448Z,18.29
2022-08-03T05:07:51.275Z,18.30
2022-08-03T05:10:19.286Z,18.40
2022-08-03T05:12:48.223Z,18.42
2022-08-03T05:15:15.787Z,18.47
2022-08-03T05:17:42.690Z,18.57
2022-08-03T05:20:09.998Z,18.61
2022-08-03T05:22:36.432Z,18.65
2022-08-03T05:25:03.552Z,18.72
2022-08-03T05:27:30.017Z,18.83
2022-08-03T05:29:56.415Z,18.90
2022-08-03T05:32:42.763Z,19.05
2022-08-03T05:36:00.709Z,19.12
2022-08-03T05:37:55.861Z,19.20
2022-08-03T05:40:22.317Z,19.35
2022-08-03T05:42:49.711Z,19.49
2022-08-03T05:45:18.383Z,19.65
2022-08-03T05:47:45.591Z,19.86
2022-08-03T05:50:13.139Z,20.09
2022-08-03T05:52:40.731Z,20.24
2022-08-03T05:55:08.329Z,20.39
2022-08-03T05:57:35.444Z,20.51
2022-08-03T06:00:05.376Z,20.63
2022-08-03T06:02:32.513Z,20.74
2022-08-03T06:04:58.917Z,20.63
2022-08-03T06:07:25.389Z,20.48
2022-08-03T06:10:36.387Z,20.55
2022-08-03T06:12:41.088Z,20.47
2022-08-03T06:15:08.044Z,20.39
2022-08-03T06:17:45.266Z,20.57
2022-08-03T06:20:12.171Z,20.62
2022-08-03T06:22:50.411Z,21.03
2022-08-03T06:25:19.331Z,21.48
2022-08-03T06:27:47.831Z,21.61
2022-08-03T06:30:18.071Z,21.60
2022-08-03T06:32:51.868Z,21.56
2022-08-03T06:35:19.186Z,21.47
2022-08-03T06:37:50.136Z,21.70
2022-08-03T06:40:24.263Z,21.60
2022-08-03T06:42:51.095Z,21.65
2022-08-03T06:45:18.024Z,21.98
2022-08-03T06:47:44.601Z,22.01
2022-08-03T06:50:16.257Z,22.14
2022-08-03T06:52:43.116Z,22.59
2022-08-03T06:55:09.751Z,22.99
2022-08-03T06:57:36.165Z,22.93
2022-08-03T07:00:07.392Z,22.79
2022-08-03T07:02:38.403Z,22.97
2022-08-03T07:05:06.008Z,23.04
2022-08-03T07:07:32.417Z,22.91
2022-08-03T07:09:58.888Z,23.14
2022-08-03T07:12:26.947Z,23.06
2022-08-03T07:14:57.959Z,23.05
2022-08-03T07:17:27.380Z,22.99
2022-08-03T07:19:53.769Z,23.13
2022-08-03T07:22:20.253Z,23.56
2022-08-03T07:24:47.723Z,23.10
2022-08-03T07:27:16.245Z,23.34
2022-08-03T07:29:42.720Z,23.58
2022-08-03T07:32:09.337Z,23.60
2022-08-03T07:34:35.778Z,23.75
2022-08-03T07:37:02.246Z,24.07
2022-08-03T07:39:28.646Z,24.29
2022-08-03T07:41:55.029Z,24.56
2022-08-03T07:44:21.708Z,24.63
2022-08-03T07:46:48.135Z,24.57
2022-08-03T07:49:14.637Z,24.71
2022-08-03T07:51:41.204Z,24.60
2022-08-03T07:54:10.084Z,24.63
2022-08-03T07:56:37.124Z,24.73
2022-08-03T07:59:03.707Z,24.93
2022-08-03T08:01:32.736Z,25.05
2022-08-03T08:03:59.369Z,25.32
2022-08-03T08:06:25.792Z,25.22
2022-08-03T08:08:53.618Z,25.28
2022-08-03T08:11:22.201Z,25.32
2022-08-03T08:13:48.669Z,25.87
2022-08-03T08:16:15.129Z,25.67
2022-08-03T08:18:41.514Z,26.00
2022-08-03T08:21:08.079Z,25.92
2022-08-03T08:23:42.307Z,25.94
2022-08-03T08:26:10.445Z,26.03
2022-08-03T08:28:37.002Z,26.03
2022-08-03T08:31:03.432Z,25.88
2022-08-03T08:33:48.100Z,26.31
2022-08-03T08:36:17.072Z,25.91
2022-08-03T08:38:44.977Z,25.65
2022-08-03T08:41:13.151Z,25.85
2022-08-03T08:43:39.590Z,25.63
2022-08-03T08:46:09.967Z,25.20
2022-08-03T08:48:41.734Z,25.35
2022-08-03T08:51:09.275Z,25.57
2022-08-03T08:53:37.400Z,25.76
2022-08-03T08:56:05.320Z,25.89
2022-08-03T08:58:37.953Z,26.23
2022-08-03T09:01:05.648Z,26.49
2022-08-03T09:03:34.143Z,26.43
2022-08-03T09:06:02.149Z,26.96
2022-08-03T09:08:29.985Z,26.98
2022-08-03T09:10:56.661Z,26.80
2022-08-03T09:13:23.162Z,27.00
2022-08-03T09:16:08.577Z,27.61
2022-08-03T09:18:34.960Z,27.36
2022-08-03T09:21:32.832Z,27.47
2022-08-03T09:24:04.364Z,27.43
2022-08-03T09:26:34.411Z,27.62
2022-08-03T09:29:14.412Z,28.09
2022-08-03T09:31:47.177Z,27.85
2022-08-03T09:34:16.930Z,27.96
2022-08-03T09:36:50.170Z,28.08
2022-08-03T09:39:41.405Z,28.28
2022-08-03T09:42:14.810Z,28.56
2022-08-03T09:44:44.355Z,28.62
2022-08-03T09:47:12.478Z,28.22
2022-08-03T09:49:41.543Z,28.75
2022-08-03T09:52:32.975Z,29.17
2022-08-03T09:55:23.842Z,29.26
2022-08-03T09:58:08.289Z,29.33
2022-08-03T10:00:53.902Z,29.01
2022-08-03T10:03:20.662Z,29.59
2022-08-03T10:05:47.277Z,29.21
2022-08-03T10:08:18.505Z,29.45
2022-08-03T10:10:47.824Z,29.71
2022-08-03T10:13:15.631Z,30.07
2022-08-03T10:16:24.146Z,30.30
2022-08-03T10:18:28.597Z,29.80
2022-08-03T10:21:03.228Z,29.79
2022-08-03T10:23:34.890Z,29.54
2022-08-03T10:26:04.662Z,30.02
2022-08-03T10:28:47.267Z,30.00
2022-08-03T10:31:14.760Z,30.06
2022-08-03T10:33:52.795Z,30.09
2022-08-03T10:36:23.775Z,30.13
2022-08-03T10:38:56.456Z,30.11
2022-08-03T10:41:26.443Z,30.18
2022-08-03T10:44:05.013Z,30.16
2022-08-03T10:46:33.536Z,30.91
2022-08-03T10:49:00.728Z,30.47
2022-08-03T10:51:31.901Z,30.56
2022-08-03T10:53:59.704Z,30.53
2022-08-03T10:56:53.468Z,30.94
2022-08-03T10:59:47.006Z,30.53
2022-08-03T11:02:14.857Z,31.40
2022-08-03T11:04:42.751Z,31.63
2022-08-03T11:07:23.798Z,31.12
2022-08-03T11:09:55.675Z,31.60
2022-08-03T11:12:28.984Z,31.24
2022-08-03T11:15:01.874Z,31.56
2022-08-03T11:17:28.618Z,31.33
2022-08-03T11:19:56.495Z,30.75
2022-08-03T11:22:25.013Z,31.75
2022-08-03T11:24:54.426Z,31.79
2022-08-03T11:27:23.100Z,31.53
2022-08-03T11:30:11.045Z,31.02
2022-08-03T11:32:37.411Z,30.57
2022-08-03T11:35:14.666Z,30.81
2022-08-03T11:38:07.021Z,31.04
2022-08-03T11:40:46.568Z,31.21
2022-08-03T11:43:22.000Z,31.32
2022-08-03T11:46:28.737Z,31.58
2022-08-03T11:49:10.720Z,31.66
2022-08-03T11:51:38.767Z,32.03
2022-08-03T11:54:06.519Z,32.03
2022-08-03T11:56:50.230Z,32.47
2022-08-03T11:59:21.747Z,32.22
2022-08-03T12:01:48.864Z,31.92
2022-08-03T12:04:16.581Z,32.12
2022-08-03T12:07:01.058Z,32.46
2022-08-03T12:09:27.572Z,31.84
2022-08-03T12:11:59.521Z,30.95
2022-08-03T12:14:49.545Z,31.72
2022-08-03T12:17:14.585Z,32.43
2022-08-03T12:19:44.582Z,32.76
2022-08-03T12:22:11.013Z,32.64
2022-08-03T12:24:42.572Z,33.04
2022-08-03T12:27:09.333Z,32.41
2022-08-03T12:29:36.136Z,32.98
2022-08-03T12:32:02.562Z,32.75
2022-08-03T12:34:49.238Z,32.29
2022-08-03T12:37:23.564Z,32.91
2022-08-03T12:40:00.550Z,33.10
2022-08-03T12:42:37.159Z,32.80
2022-08-03T12:45:26.981Z,32.91
2022-08-03T12:47:59.384Z,33.52
2022-08-03T12:50:37.194Z,33.88
2022-08-03T12:53:07.900Z,33.49
2022-08-03T12:55:57.901Z,33.12
2022-08-03T12:58:35.380Z,33.17
2022-08-03T13:01:09.953Z,32.70
2022-08-03T13:03:45.641Z,33.00
2022-08-03T13:06:17.890Z,33.64
2022-08-03T13:08:45.928Z,34.34
2022-08-03T13:11:22.641Z,34.14
2022-08-03T13:13:50.055Z,33.92
2022-08-03T13:16:19.292Z,33.57
2022-08-03T13:18:48.869Z,32.89
2022-08-03T13:21:16.448Z,32.98
2022-08-03T13:23:43.688Z,32.83
2022-08-03T13:26:11.866Z,32.91
2022-08-03T13:28:39.294Z,33.23
2022-08-03T13:31:07.104Z,33.43
2022-08-03T13:33:33.806Z,33.38
2022-08-03T13:36:00.252Z,32.99
2022-08-03T13:38:27.049Z,33.23
2022-08-03T13:40:53.738Z,33.77
2022-08-03T13:43:21.325Z,33.92
2022-08-03T13:45:52.387Z,33.75
2022-08-03T13:48:36.213Z,33.38
2022-08-03T13:51:11.620Z,33.18
2022-08-03T13:53:48.196Z,32.73
2022-08-03T13:56:14.566Z,32.82
2022-08-03T13:58:40.953Z,33.20
2022-08-03T14:01:07.484Z,32.50
2022-08-03T14:03:33.901Z,33.28
2022-08-03T14:06:00.328Z,33.55
2022-08-03T14:08:26.736Z,32.88
2022-08-03T14:10:53.154Z,32.81
2022-08-03T14:13:19.587Z,32.71
2022-08-03T14:15:50.933Z,32.69
2022-08-03T14:18:29.345Z,32.35
2022-08-03T14:21:06.032Z,32.52
2022-08-03T14:23:33.538Z,32.23
2022-08-03T14:26:00.148Z,31.81
2022-08-03T14:28:26.575Z,31.85
2022-08-03T14:30:54.448Z,31.71
2022-08-03T14:33:21.212Z,31.71
2022-08-03T14:35:48.978Z,31.81
2022-08-03T14:38:16.198Z,31.99
2022-08-03T14:40:43.345Z,32.13
2022-08-03T14:43:09.982Z,31.70
2022-08-03T14:45:36.725Z,31.52
2022-08-03T14:50:29.294Z,31.84
2022-08-03T14:50:52.566Z,32.12
2022-08-03T14:53:19.902Z,32.21
2022-08-03T14:55:49.803Z,32.04
2022-08-03T14:58:21.095Z,32.55
2022-08-03T15:00:49.802Z,32.33
2022-08-03T15:03:20.122Z,32.49
2022-08-03T15:05:46.778Z,32.74
2022-08-03T15:08:13.169Z,32.74
2022-08-03T15:10:43.940Z,32.83
2022-08-03T15:13:11.389Z,32.37
2022-08-03T15:15:37.805Z,32.31
2022-08-03T15:18:04.475Z,32.29
2022-08-03T15:20:43.400Z,32.23
2022-08-03T15:23:11.604Z,32.21
2022-08-03T15:26:03.290Z,32.28
2022-08-03T15:28:24.562Z,32.30
2022-08-03T15:30:54.684Z,32.08
2022-08-03T15:33:21.339Z,32.06
2022-08-03T15:35:47.967Z,31.55
2022-08-03T15:38:14.787Z,31.02
2022-08-03T15:40:41.653Z,31.02
2022-08-03T15:43:08.118Z,31.12
2022-08-03T15:45:35.323Z,31.16
2022-08-03T15:48:04.330Z,31.12
2022-08-03T15:50:30.765Z,31.32
2022-08-03T15:52:57.339Z,31.71
2022-08-03T15:55:23.827Z,31.76
2022-08-03T15:59:07.659Z,31.72
2022-08-03T16:00:36.975Z,31.72
2022-08-03T16:03:03.616Z,31.60
2022-08-03T16:05:30.069Z,31.59
2022-08-03T16:08:03.222Z,31.83
2022-08-03T16:10:31.236Z,31.69
2022-08-03T16:12:58.920Z,31.57
2022-08-03T16:15:25.459Z,31.86
2022-08-03T16:17:51.907Z,31.51
2022-08-03T16:20:30.992Z,31.53
2022-08-03T16:23:07.743Z,31.11
2022-08-03T16:25:37.998Z,31.41
2022-08-03T16:28:08.279Z,31.26
2022-08-03T16:30:39.708Z,31.50
2022-08-03T16:33:06.242Z,31.16
2022-08-03T16:35:32.880Z,31.14
2022-08-03T16:38:00.546Z,31.22
2022-08-03T16:40:27.256Z,30.78
2022-08-03T16:42:54.094Z,30.77
2022-08-03T16:45:20.583Z,31.04
2022-08-03T16:47:47.005Z,31.00
2022-08-03T16:50:27.760Z,30.95
2022-08-03T16:52:54.207Z,30.85
2022-08-03T16:55:43.323Z,30.78
2022-08-03T16:58:07.975Z,30.56
2022-08-03T17:00:41.815Z,30.58
2022-08-03T17:03:18.619Z,30.42
2022-08-03T17:05:48.114Z,30.46
2022-08-03T17:08:26.079Z,30.38
2022-08-03T17:10:52.793Z,30.30
2022-08-03T17:13:21.785Z,29.96
2022-08-03T17:16:00.858Z,29.58
2022-08-03T17:18:34.914Z,29.45
2022-08-03T17:21:06.529Z,29.46
2022-08-03T17:23:45.614Z,29.48
2022-08-03T17:26:21.232Z,29.29
2022-08-03T17:28:58.347Z,29.26
2022-08-03T17:31:31.162Z,29.07
2022-08-03T17:34:00.702Z,29.21
2022-08-03T17:36:41.861Z,29.14
2022-08-03T17:39:16.543Z,28.94
2022-08-03T17:41:49.072Z,28.59
2022-08-03T17:44:31.065Z,28.81
2022-08-03T17:47:05.051Z,28.75
2022-08-03T17:49:33.206Z,28.70
2022-08-03T17:52:22.018Z,28.62
2022-08-03T17:55:54.838Z,28.45
2022-08-03T17:58:17.095Z,28.30
2022-08-03T18:03:57.828Z,28.18
2022-08-03T18:06:30.688Z,27.81
2022-08-03T18:09:04.827Z,27.94
2022-08-03T18:11:35.737Z,27.75
2022-08-03T18:14:15.875Z,27.71
2022-08-03T18:16:55.168Z,27.44
2022-08-03T18:20:00.963Z,27.40
2022-08-03T18:22:11.321Z,27.35
2022-08-03T18:24:38.281Z,27.21
2022-08-03T18:27:06.643Z,27.16
2022-08-03T18:29:35.729Z,27.24
2022-08-03T18:32:05.282Z,27.16
2022-08-03T18:34:35.948Z,27.12
2022-08-03T18:37:08.441Z,26.97
2022-08-03T18:39:49.271Z,26.79
2022-08-03T18:42:19.355Z,26.64
2022-08-03T18:44:54.163Z,26.46
2022-08-03T18:47:51.875Z,26.36
2022-08-03T18:50:34.703Z,26.21
2022-08-03T18:53:15.512Z,25.98
2022-08-03T18:56:02.237Z,25.85
2022-08-03T18:59:05.116Z,25.60
2022-08-03T19:01:59.622Z,25.54
2022-08-03T19:04:35.072Z,25.39
2022-08-03T19:07:09.525Z,25.15
2022-08-03T19:09:48.362Z,25.23
2022-08-03T19:12:37.436Z,25.22
2022-08-03T19:15:12.460Z,25.03
2022-08-03T19:17:57.231Z,24.87
2022-08-03T19:20:30.814Z,24.76
2022-08-03T19:22:59.666Z,24.70
2022-08-03T19:25:34.683Z,24.77
2022-08-03T19:28:03.680Z,24.48
2022-08-03T19:30:38.783Z,24.40
2022-08-03T19:33:11.438Z,24.23
2022-08-03T19:35:55.230Z,24.10
2022-08-03T19:38:28.374Z,24.04
2022-08-03T19:41:03.781Z,23.90
2022-08-03T19:43:53.986Z,23.90
2022-08-03T19:46:30.444Z,23.91
2022-08-03T19:49:04.790Z,23.91
2022-08-03T19:52:02.346Z,23.91
2022-08-03T19:54:25.326Z,23.70
2022-08-03T19:56:57.180Z,23.66
2022-08-03T19:59:26.472Z,23.44
2022-08-03T20:01:52.975Z,23.23
2022-08-03T20:04:21.204Z,23.21
2022-08-03T20:06:49.634Z,23.10
2022-08-03T20:09:17.958Z,22.97
2022-08-03T20:11:45.149Z,22.82
2022-08-03T20:14:13.260Z,22.81
2022-08-03T20:16:48.072Z,23.10
2022-08-03T20:19:16.447Z,23.05
2022-08-03T20:21:48.059Z,23.01
2022-08-03T20:24:26.394Z,22.81
2022-08-03T20:26:55.343Z,22.76
2022-08-03T20:30:05.199Z,22.85
2022-08-03T20:32:19.626Z,22.69
2022-08-03T20:34:51.218Z,22.63
2022-08-03T20:37:19.447Z,22.72
2022-08-03T20:39:49.377Z,22.75
2022-08-03T20:42:21.454Z,22.58
2022-08-03T20:45:04.583Z,22.52
2022-08-03T20:47:36.857Z,22.34
2022-08-03T20:50:16.866Z,22.40
2022-08-03T20:52:49.321Z,22.58
2022-08-03T20:55:16.889Z,22.43
2022-08-03T20:57:43.564Z,22.46
2022-08-03T21:00:19.453Z,22.22
2022-08-03T21:02:48.614Z,22.18
2022-08-03T21:05:16.338Z,22.19
2022-08-03T21:08:04.951Z,22.07
2022-08-03T21:10:37.896Z,22.13
2022-08-03T21:13:17.828Z,21.82
2022-08-03T21:16:01.201Z,21.93
2022-08-03T21:18:38.015Z,21.96
2022-08-03T21:21:06.847Z,21.95
2022-08-03T21:23:48.386Z,21.88
2022-08-03T21:26:17.327Z,21.87
2022-08-03T21:28:46.551Z,21.75
2022-08-03T21:31:13.659Z,21.79
2022-08-03T21:33:40.863Z,21.97
2022-08-03T21:36:10.943Z,22.02
2022-08-03T21:38:37.666Z,22.01
2022-08-03T21:41:04.151Z,21.93
2022-08-03T21:43:30.633Z,21.80
2022-08-03T21:46:03.183Z,21.84
2022-08-03T21:48:35.992Z,21.87
2022-08-03T21:51:03.311Z,21.68
2022-08-03T21:54:00.313Z,21.65
2022-08-03T21:56:21.675Z,21.76
2022-08-03T21:58:55.183Z,21.53
2022-08-03T22:01:25.428Z,21.38
2022-08-03T22:03:56.736Z,21.63
2022-08-03T22:06:27.722Z,21.67
2022-08-03T22:08:54.432Z,21.60
2022-08-03T22:11:21.153Z,21.63
2022-08-03T22:13:48.266Z,21.62
2022-08-03T22:16:15.292Z,21.50
2022-08-03T22:18:45.423Z,21.53
2022-08-03T22:21:15.784Z,21.58
2022-08-03T22:23:46.475Z,21.55
2022-08-03T22:26:34.661Z,21.42
2022-08-03T22:29:06.778Z,21.52
2022-08-03T22:31:58.296Z,21.50
2022-08-03T22:34:26.430Z,21.23
2022-08-03T22:36:57.174Z,21.37
2022-08-03T22:39:29.076Z,21.53
2022-08-03T22:41:57.883Z,21.41
2022-08-03T22:44:25.506Z,21.23
2022-08-03T22:46:52.348Z,21.25
2022-08-03T22:49:20.059Z,21.10
2022-08-03T22:51:47.361Z,21.03
2022-08-03T22:54:14.435Z,21.08
2022-08-03T22:56:41.405Z,21.04
2022-08-03T22:59:39.862Z,21.04
2022-08-03T23:01:58.512Z,21.01
2022-08-03T23:04:25.990Z,20.78
2022-08-03T23:06:56.632Z,21.01
2022-08-03T23:09:24.408Z,21.04
2022-08-03T23:11:55.363Z,21.08
2022-08-03T23:14:22.882Z,21.10
2022-08-03T23:16:51.307Z,21.04
2022-08-03T23:19:25.348Z,20.90
2022-08-03T23:22:02.527Z,20.82
2022-08-03T23:24:30.779Z,20.80
2022-08-03T23:26:58.473Z,20.80
2022-08-03T23:29:26.320Z,20.66
2022-08-03T23:31:53.714Z,20.69
2022-08-03T23:34:39.812Z,20.55
2022-08-03T23:37:06.488Z,20.63
2022-08-03T23:39:35.208Z,20.59
2022-08-03T23:42:02.840Z,20.55
2022-08-03T23:44:31.100Z,20.47
2022-08-03T23:46:57.509Z,20.54
2022-08-03T23:49:23.931Z,20.56
2022-08-03T23:51:56.309Z,20.65
2022-08-03T23:54:37.933Z,20.63
2022-08-03T23:57:22.767Z,20.56
